sensor_id;sensor_type;location;lat;lon;timestamp;temperature;humidity
42199;DHT22;27868;45.184;5.786;2023-03-19T00:00:30;12.90;67.80
42199;DHT22;27868;45.184;5.786;2023-03-19T00:03:15;12.90;68.00
42199;DHT22;27868;45.184;5.786;2023-03-19T00:06:00;12.80;68.20
42199;DHT22;27868;45.184;5.786;2023-03-19T00:08:44;12.80;68.30
42199;DHT22;27868;45.184;5.786;2023-03-19T00:11:29;12.80;68.70
42199;DHT22;27868;45.184;5.786;2023-03-19T00:14:14;12.70;68.60
42199;DHT22;27868;45.184;5.786;2023-03-19T00:16:59;12.70;68.60
42199;DHT22;27868;45.184;5.786;2023-03-19T00:19:44;12.60;68.60
42199;DHT22;27868;45.184;5.786;2023-03-19T00:22:29;12.50;68.80
42199;DHT22;27868;45.184;5.786;2023-03-19T00:25:13;12.50;69.10
42199;DHT22;27868;45.184;5.786;2023-03-19T00:27:58;12.50;69.30
42199;DHT22;27868;45.184;5.786;2023-03-19T00:30:42;12.50;69.30
42199;DHT22;27868;45.184;5.786;2023-03-19T00:33:28;12.50;69.30
42199;DHT22;27868;45.184;5.786;2023-03-19T00:36:14;12.50;69.30
42199;DHT22;27868;45.184;5.786;2023-03-19T00:39:03;12.50;69.30
42199;DHT22;27868;45.184;5.786;2023-03-19T00:41:47;12.50;69.30
42199;DHT22;27868;45.184;5.786;2023-03-19T00:44:33;12.50;69.50
42199;DHT22;27868;45.184;5.786;2023-03-19T00:47:18;12.40;69.60
42199;DHT22;27868;45.184;5.786;2023-03-19T00:50:04;12.40;69.70
42199;DHT22;27868;45.184;5.786;2023-03-19T00:52:49;12.40;69.70
42199;DHT22;27868;45.184;5.786;2023-03-19T00:55:34;12.40;69.90
42199;DHT22;27868;45.184;5.786;2023-03-19T00:58:19;12.30;70.00
42199;DHT22;27868;45.184;5.786;2023-03-19T01:01:04;12.30;70.20
42199;DHT22;27868;45.184;5.786;2023-03-19T01:03:50;12.20;70.40
42199;DHT22;27868;45.184;5.786;2023-03-19T01:06:34;12.20;70.70
42199;DHT22;27868;45.184;5.786;2023-03-19T01:09:19;12.20;70.60
42199;DHT22;27868;45.184;5.786;2023-03-19T01:12:04;12.20;70.70
42199;DHT22;27868;45.184;5.786;2023-03-19T01:14:48;12.20;70.80
42199;DHT22;27868;45.184;5.786;2023-03-19T01:17:33;12.20;70.80
42199;DHT22;27868;45.184;5.786;2023-03-19T01:20:18;12.10;71.50
42199;DHT22;27868;45.184;5.786;2023-03-19T01:23:04;12.10;70.80
42199;DHT22;27868;45.184;5.786;2023-03-19T01:25:49;12.10;71.00
42199;DHT22;27868;45.184;5.786;2023-03-19T01:28:34;12.10;71.10
42199;DHT22;27868;45.184;5.786;2023-03-19T01:31:20;12.10;71.10
42199;DHT22;27868;45.184;5.786;2023-03-19T01:34:05;12.10;71.10
42199;DHT22;27868;45.184;5.786;2023-03-19T01:36:51;12.00;71.10
42199;DHT22;27868;45.184;5.786;2023-03-19T01:39:35;12.00;71.20
42199;DHT22;27868;45.184;5.786;2023-03-19T01:42:20;12.00;71.20
42199;DHT22;27868;45.184;5.786;2023-03-19T01:45:35;12.00;71.80
42199;DHT22;27868;45.184;5.786;2023-03-19T01:48:31;12.00;71.40
42199;DHT22;27868;45.184;5.786;2023-03-19T01:51:22;12.00;71.40
42199;DHT22;27868;45.184;5.786;2023-03-19T01:54:10;12.00;71.30
42199;DHT22;27868;45.184;5.786;2023-03-19T01:57:08;11.90;71.10
42199;DHT22;27868;45.184;5.786;2023-03-19T01:59:56;11.90;71.60
42199;DHT22;27868;45.184;5.786;2023-03-19T02:02:46;11.90;71.50
42199;DHT22;27868;45.184;5.786;2023-03-19T02:05:32;11.80;71.60
42199;DHT22;27868;45.184;5.786;2023-03-19T02:08:20;11.80;71.70
42199;DHT22;27868;45.184;5.786;2023-03-19T02:11:06;11.80;71.80
42199;DHT22;27868;45.184;5.786;2023-03-19T02:13:51;11.80;72.10
42199;DHT22;27868;45.184;5.786;2023-03-19T02:16:36;11.70;72.00
42199;DHT22;27868;45.184;5.786;2023-03-19T02:22:13;11.70;72.30
42199;DHT22;27868;45.184;5.786;2023-03-19T02:25:08;11.60;72.20
42199;DHT22;27868;45.184;5.786;2023-03-19T02:27:54;11.60;72.60
42199;DHT22;27868;45.184;5.786;2023-03-19T02:30:42;11.60;72.60
42199;DHT22;27868;45.184;5.786;2023-03-19T02:33:27;11.60;72.80
42199;DHT22;27868;45.184;5.786;2023-03-19T02:36:17;11.60;73.00
42199;DHT22;27868;45.184;5.786;2023-03-19T02:39:05;11.60;73.20
42199;DHT22;27868;45.184;5.786;2023-03-19T02:41:52;11.60;73.10
42199;DHT22;27868;45.184;5.786;2023-03-19T02:44:37;11.50;73.20
42199;DHT22;27868;45.184;5.786;2023-03-19T02:47:24;11.60;73.30
42199;DHT22;27868;45.184;5.786;2023-03-19T02:50:09;11.50;73.30
42199;DHT22;27868;45.184;5.786;2023-03-19T02:52:54;11.50;73.40
42199;DHT22;27868;45.184;5.786;2023-03-19T02:55:39;11.50;73.50
42199;DHT22;27868;45.184;5.786;2023-03-19T02:58:24;11.50;73.80
42199;DHT22;27868;45.184;5.786;2023-03-19T03:01:09;11.50;73.90
42199;DHT22;27868;45.184;5.786;2023-03-19T03:03:54;11.50;74.70
42199;DHT22;27868;45.184;5.786;2023-03-19T03:06:39;11.50;74.20
42199;DHT22;27868;45.184;5.786;2023-03-19T03:09:24;11.50;74.20
42199;DHT22;27868;45.184;5.786;2023-03-19T03:12:09;11.50;74.40
42199;DHT22;27868;45.184;5.786;2023-03-19T03:14:54;11.50;74.40
42199;DHT22;27868;45.184;5.786;2023-03-19T03:17:39;11.50;74.70
42199;DHT22;27868;45.184;5.786;2023-03-19T03:20:25;11.50;74.90
42199;DHT22;27868;45.184;5.786;2023-03-19T03:23:10;11.50;74.80
42199;DHT22;27868;45.184;5.786;2023-03-19T03:25:54;11.50;74.90
42199;DHT22;27868;45.184;5.786;2023-03-19T03:28:39;11.50;75.00
42199;DHT22;27868;45.184;5.786;2023-03-19T03:31:24;11.50;75.10
42199;DHT22;27868;45.184;5.786;2023-03-19T03:34:10;11.50;75.90
42199;DHT22;27868;45.184;5.786;2023-03-19T03:36:55;11.40;75.10
42199;DHT22;27868;45.184;5.786;2023-03-19T03:39:39;11.40;75.10
42199;DHT22;27868;45.184;5.786;2023-03-19T03:42:24;11.40;75.10
42199;DHT22;27868;45.184;5.786;2023-03-19T03:45:09;11.40;75.10
42199;DHT22;27868;45.184;5.786;2023-03-19T03:47:54;11.40;75.20
42199;DHT22;27868;45.184;5.786;2023-03-19T03:50:39;11.50;75.30
42199;DHT22;27868;45.184;5.786;2023-03-19T03:53:24;11.40;75.50
42199;DHT22;27868;45.184;5.786;2023-03-19T03:56:09;11.50;75.50
42199;DHT22;27868;45.184;5.786;2023-03-19T03:58:53;11.40;75.50
42199;DHT22;27868;45.184;5.786;2023-03-19T04:01:39;11.50;75.50
42199;DHT22;27868;45.184;5.786;2023-03-19T04:04:24;11.40;75.30
42199;DHT22;27868;45.184;5.786;2023-03-19T04:07:09;11.40;75.90
42199;DHT22;27868;45.184;5.786;2023-03-19T04:09:56;11.40;75.20
42199;DHT22;27868;45.184;5.786;2023-03-19T04:12:41;11.40;75.40
42199;DHT22;27868;45.184;5.786;2023-03-19T04:15:26;11.40;75.50
42199;DHT22;27868;45.184;5.786;2023-03-19T04:18:11;11.40;75.60
42199;DHT22;27868;45.184;5.786;2023-03-19T04:20:56;11.40;75.80
42199;DHT22;27868;45.184;5.786;2023-03-19T04:23:41;11.40;76.00
42199;DHT22;27868;45.184;5.786;2023-03-19T04:26:25;11.40;76.20
42199;DHT22;27868;45.184;5.786;2023-03-19T04:29:10;11.40;76.20
42199;DHT22;27868;45.184;5.786;2023-03-19T04:31:54;11.40;76.30
42199;DHT22;27868;45.184;5.786;2023-03-19T04:34:39;11.40;76.40
42199;DHT22;27868;45.184;5.786;2023-03-19T04:37:25;11.40;76.40
42199;DHT22;27868;45.184;5.786;2023-03-19T04:40:11;11.40;76.40
42199;DHT22;27868;45.184;5.786;2023-03-19T04:42:57;11.40;76.50
42199;DHT22;27868;45.184;5.786;2023-03-19T04:45:41;11.40;76.50
42199;DHT22;27868;45.184;5.786;2023-03-19T04:48:26;11.40;76.50
42199;DHT22;27868;45.184;5.786;2023-03-19T04:51:11;11.40;76.40
42199;DHT22;27868;45.184;5.786;2023-03-19T04:53:55;11.40;76.40
42199;DHT22;27868;45.184;5.786;2023-03-19T04:56:40;11.40;76.40
42199;DHT22;27868;45.184;5.786;2023-03-19T04:59:24;11.50;76.50
42199;DHT22;27868;45.184;5.786;2023-03-19T05:02:09;11.40;76.70
42199;DHT22;27868;45.184;5.786;2023-03-19T05:04:54;11.40;76.60
42199;DHT22;27868;45.184;5.786;2023-03-19T05:07:39;11.40;77.20
42199;DHT22;27868;45.184;5.786;2023-03-19T05:10:24;11.30;78.00
42199;DHT22;27868;45.184;5.786;2023-03-19T05:13:09;11.30;78.70
42199;DHT22;27868;45.184;5.786;2023-03-19T05:15:54;11.40;78.60
42199;DHT22;27868;45.184;5.786;2023-03-19T05:18:39;11.30;78.70
42199;DHT22;27868;45.184;5.786;2023-03-19T05:21:23;11.40;78.40
42199;DHT22;27868;45.184;5.786;2023-03-19T05:24:08;11.40;78.50
42199;DHT22;27868;45.184;5.786;2023-03-19T05:26:53;11.40;78.40
42199;DHT22;27868;45.184;5.786;2023-03-19T05:29:38;11.40;78.50
42199;DHT22;27868;45.184;5.786;2023-03-19T05:32:23;11.40;78.50
42199;DHT22;27868;45.184;5.786;2023-03-19T05:35:09;11.40;78.40
42199;DHT22;27868;45.184;5.786;2023-03-19T05:37:53;11.40;78.50
42199;DHT22;27868;45.184;5.786;2023-03-19T05:40:38;11.40;78.40
42199;DHT22;27868;45.184;5.786;2023-03-19T05:43:25;11.40;78.30
42199;DHT22;27868;45.184;5.786;2023-03-19T05:46:10;11.40;78.40
42199;DHT22;27868;45.184;5.786;2023-03-19T05:48:55;11.40;78.40
42199;DHT22;27868;45.184;5.786;2023-03-19T05:51:40;11.40;78.60
42199;DHT22;27868;45.184;5.786;2023-03-19T05:54:24;11.50;78.90
42199;DHT22;27868;45.184;5.786;2023-03-19T05:57:09;11.50;78.90
42199;DHT22;27868;45.184;5.786;2023-03-19T05:59:53;11.40;79.10
42199;DHT22;27868;45.184;5.786;2023-03-19T06:02:38;11.40;79.40
42199;DHT22;27868;45.184;5.786;2023-03-19T06:05:23;11.50;79.80
42199;DHT22;27868;45.184;5.786;2023-03-19T06:08:08;11.50;80.10
42199;DHT22;27868;45.184;5.786;2023-03-19T06:10:53;11.50;80.40
42199;DHT22;27868;45.184;5.786;2023-03-19T06:13:37;11.50;80.60
42199;DHT22;27868;45.184;5.786;2023-03-19T06:16:22;11.50;81.00
42199;DHT22;27868;45.184;5.786;2023-03-19T06:19:07;11.50;81.10
42199;DHT22;27868;45.184;5.786;2023-03-19T06:21:52;11.50;81.50
42199;DHT22;27868;45.184;5.786;2023-03-19T06:24:36;11.50;81.70
42199;DHT22;27868;45.184;5.786;2023-03-19T06:27:21;11.50;81.70
42199;DHT22;27868;45.184;5.786;2023-03-19T06:30:07;11.50;82.00
42199;DHT22;27868;45.184;5.786;2023-03-19T06:32:52;11.50;82.50
42199;DHT22;27868;45.184;5.786;2023-03-19T06:35:37;11.50;82.70
42199;DHT22;27868;45.184;5.786;2023-03-19T06:38:21;11.50;83.00
42199;DHT22;27868;45.184;5.786;2023-03-19T06:41:06;11.50;83.50
42199;DHT22;27868;45.184;5.786;2023-03-19T06:43:51;11.50;83.90
42199;DHT22;27868;45.184;5.786;2023-03-19T06:46:35;11.50;84.10
42199;DHT22;27868;45.184;5.786;2023-03-19T06:49:21;11.50;84.10
42199;DHT22;27868;45.184;5.786;2023-03-19T06:52:05;11.50;84.40
42199;DHT22;27868;45.184;5.786;2023-03-19T06:54:50;11.50;84.50
42199;DHT22;27868;45.184;5.786;2023-03-19T06:57:35;11.60;84.60
42199;DHT22;27868;45.184;5.786;2023-03-19T07:00:19;11.50;84.60
42199;DHT22;27868;45.184;5.786;2023-03-19T07:03:04;11.50;84.90
42199;DHT22;27868;45.184;5.786;2023-03-19T07:05:50;11.60;85.40
42199;DHT22;27868;45.184;5.786;2023-03-19T07:08:35;11.60;85.70
42199;DHT22;27868;45.184;5.786;2023-03-19T07:11:19;11.60;85.90
42199;DHT22;27868;45.184;5.786;2023-03-19T07:14:05;11.60;86.60
42199;DHT22;27868;45.184;5.786;2023-03-19T07:16:50;11.60;86.70
42199;DHT22;27868;45.184;5.786;2023-03-19T07:19:35;11.60;86.70
42199;DHT22;27868;45.184;5.786;2023-03-19T07:22:20;11.70;87.20
42199;DHT22;27868;45.184;5.786;2023-03-19T07:25:05;11.70;87.40
42199;DHT22;27868;45.184;5.786;2023-03-19T07:27:50;11.70;87.50
42199;DHT22;27868;45.184;5.786;2023-03-19T07:30:35;11.70;87.70
42199;DHT22;27868;45.184;5.786;2023-03-19T07:33:21;11.70;88.60
42199;DHT22;27868;45.184;5.786;2023-03-19T07:36:06;11.70;88.00
42199;DHT22;27868;45.184;5.786;2023-03-19T07:38:51;11.70;88.00
42199;DHT22;27868;45.184;5.786;2023-03-19T07:41:36;11.70;88.50
42199;DHT22;27868;45.184;5.786;2023-03-19T07:44:21;11.70;88.70
42199;DHT22;27868;45.184;5.786;2023-03-19T07:47:05;11.70;89.00
42199;DHT22;27868;45.184;5.786;2023-03-19T07:49:50;11.70;89.40
42199;DHT22;27868;45.184;5.786;2023-03-19T07:52:36;11.70;89.50
42199;DHT22;27868;45.184;5.786;2023-03-19T07:55:21;11.80;89.90
42199;DHT22;27868;45.184;5.786;2023-03-19T07:58:06;11.80;90.00
42199;DHT22;27868;45.184;5.786;2023-03-19T08:00:51;11.80;89.90
42199;DHT22;27868;45.184;5.786;2023-03-19T08:03:36;11.80;89.90
42199;DHT22;27868;45.184;5.786;2023-03-19T08:06:22;11.90;90.00
42199;DHT22;27868;45.184;5.786;2023-03-19T08:09:07;11.90;90.10
42199;DHT22;27868;45.184;5.786;2023-03-19T08:11:53;11.90;90.10
42199;DHT22;27868;45.184;5.786;2023-03-19T08:14:37;11.90;90.20
42199;DHT22;27868;45.184;5.786;2023-03-19T08:17:22;11.90;90.30
42199;DHT22;27868;45.184;5.786;2023-03-19T08:20:10;12.00;90.60
42199;DHT22;27868;45.184;5.786;2023-03-19T08:22:54;12.00;90.60
42199;DHT22;27868;45.184;5.786;2023-03-19T08:25:41;12.00;90.60
42199;DHT22;27868;45.184;5.786;2023-03-19T08:28:25;12.00;90.70
42199;DHT22;27868;45.184;5.786;2023-03-19T08:31:12;12.00;90.70
42199;DHT22;27868;45.184;5.786;2023-03-19T08:33:57;12.00;90.80
42199;DHT22;27868;45.184;5.786;2023-03-19T08:36:43;12.00;90.80
42199;DHT22;27868;45.184;5.786;2023-03-19T08:39:28;12.00;91.00
42199;DHT22;27868;45.184;5.786;2023-03-19T08:42:12;12.10;91.00
42199;DHT22;27868;45.184;5.786;2023-03-19T08:44:57;12.10;91.30
42199;DHT22;27868;45.184;5.786;2023-03-19T08:47:42;12.10;91.20
42199;DHT22;27868;45.184;5.786;2023-03-19T08:50:27;12.10;91.20
42199;DHT22;27868;45.184;5.786;2023-03-19T08:53:12;12.10;91.20
42199;DHT22;27868;45.184;5.786;2023-03-19T08:55:59;12.10;91.10
42199;DHT22;27868;45.184;5.786;2023-03-19T08:58:44;12.20;91.30
42199;DHT22;27868;45.184;5.786;2023-03-19T09:01:28;12.20;91.20
42199;DHT22;27868;45.184;5.786;2023-03-19T09:04:13;12.20;91.10
42199;DHT22;27868;45.184;5.786;2023-03-19T09:06:58;12.30;91.20
42199;DHT22;27868;45.184;5.786;2023-03-19T09:09:43;12.30;91.20
42199;DHT22;27868;45.184;5.786;2023-03-19T09:12:28;12.30;91.30
42199;DHT22;27868;45.184;5.786;2023-03-19T09:15:12;12.40;91.40
42199;DHT22;27868;45.184;5.786;2023-03-19T09:17:58;12.40;91.40
42199;DHT22;27868;45.184;5.786;2023-03-19T09:20:42;12.40;91.40
42199;DHT22;27868;45.184;5.786;2023-03-19T09:23:27;12.40;91.70
42199;DHT22;27868;45.184;5.786;2023-03-19T09:26:12;12.40;91.90
42199;DHT22;27868;45.184;5.786;2023-03-19T09:28:57;12.40;92.00
42199;DHT22;27868;45.184;5.786;2023-03-19T09:31:42;12.50;92.20
42199;DHT22;27868;45.184;5.786;2023-03-19T09:34:27;12.50;92.20
42199;DHT22;27868;45.184;5.786;2023-03-19T09:37:12;12.60;92.10
42199;DHT22;27868;45.184;5.786;2023-03-19T09:39:57;12.60;92.10
42199;DHT22;27868;45.184;5.786;2023-03-19T09:42:59;12.70;92.20
42199;DHT22;27868;45.184;5.786;2023-03-19T09:45:50;12.70;92.40
42199;DHT22;27868;45.184;5.786;2023-03-19T09:48:41;12.70;92.40
42199;DHT22;27868;45.184;5.786;2023-03-19T09:51:44;12.80;92.60
42199;DHT22;27868;45.184;5.786;2023-03-19T09:54:43;12.80;92.40
42199;DHT22;27868;45.184;5.786;2023-03-19T09:57:29;12.90;92.30
42199;DHT22;27868;45.184;5.786;2023-03-19T10:00:26;12.80;92.10
42199;DHT22;27868;45.184;5.786;2023-03-19T10:06:33;13.00;92.20
42199;DHT22;27868;45.184;5.786;2023-03-19T10:13:02;13.10;92.50
42199;DHT22;27868;45.184;5.786;2023-03-19T10:15:52;13.10;92.50
42199;DHT22;27868;45.184;5.786;2023-03-19T10:18:38;13.20;92.30
42199;DHT22;27868;45.184;5.786;2023-03-19T10:21:44;13.20;92.10
42199;DHT22;27868;45.184;5.786;2023-03-19T10:24:50;13.20;92.10
42199;DHT22;27868;45.184;5.786;2023-03-19T10:27:37;13.30;92.10
42199;DHT22;27868;45.184;5.786;2023-03-19T10:30:22;13.30;92.10
42199;DHT22;27868;45.184;5.786;2023-03-19T10:33:18;13.40;92.10
42199;DHT22;27868;45.184;5.786;2023-03-19T10:36:08;13.40;92.10
42199;DHT22;27868;45.184;5.786;2023-03-19T10:38:53;13.40;91.90
42199;DHT22;27868;45.184;5.786;2023-03-19T10:45:01;13.50;92.00
42199;DHT22;27868;45.184;5.786;2023-03-19T10:47:48;13.50;92.20
42199;DHT22;27868;45.184;5.786;2023-03-19T10:50:34;13.40;93.20
42199;DHT22;27868;45.184;5.786;2023-03-19T10:56:18;13.40;92.50
42199;DHT22;27868;45.184;5.786;2023-03-19T10:59:30;13.40;92.50
42199;DHT22;27868;45.184;5.786;2023-03-19T11:02:22;13.50;92.50
42199;DHT22;27868;45.184;5.786;2023-03-19T11:08:04;13.60;92.40
42199;DHT22;27868;45.184;5.786;2023-03-19T11:10:50;13.70;92.40
42199;DHT22;27868;45.184;5.786;2023-03-19T11:13:35;13.70;92.20
42199;DHT22;27868;45.184;5.786;2023-03-19T11:16:20;13.70;92.10
42199;DHT22;27868;45.184;5.786;2023-03-19T11:19:20;13.80;92.10
42199;DHT22;27868;45.184;5.786;2023-03-19T11:22:14;13.90;92.20
42199;DHT22;27868;45.184;5.786;2023-03-19T11:25:22;13.90;92.10
42199;DHT22;27868;45.184;5.786;2023-03-19T11:28:15;14.00;92.00
42199;DHT22;27868;45.184;5.786;2023-03-19T11:40:05;14.10;90.40
42199;DHT22;27868;45.184;5.786;2023-03-19T11:46:23;14.10;90.30
42199;DHT22;27868;45.184;5.786;2023-03-19T11:55:30;14.30;88.70
42199;DHT22;27868;45.184;5.786;2023-03-19T11:58:28;14.30;88.40
42199;DHT22;27868;45.184;5.786;2023-03-19T12:01:34;14.30;87.10
42199;DHT22;27868;45.184;5.786;2023-03-19T12:22:46;15.00;84.50
42199;DHT22;27868;45.184;5.786;2023-03-19T12:28:58;15.20;83.60
42199;DHT22;27868;45.184;5.786;2023-03-19T12:32:10;15.40;83.60
42199;DHT22;27868;45.184;5.786;2023-03-19T12:35:05;15.50;82.00
42199;DHT22;27868;45.184;5.786;2023-03-19T12:41:09;15.50;77.10
42199;DHT22;27868;45.184;5.786;2023-03-19T12:44:21;15.70;80.50
42199;DHT22;27868;45.184;5.786;2023-03-19T12:47:22;15.80;79.50
42199;DHT22;27868;45.184;5.786;2023-03-19T12:50:13;15.80;76.00
42199;DHT22;27868;45.184;5.786;2023-03-19T12:53:03;16.00;79.90
42199;DHT22;27868;45.184;5.786;2023-03-19T12:55:54;16.10;80.10
42199;DHT22;27868;45.184;5.786;2023-03-19T13:05:06;16.10;78.60
42199;DHT22;27868;45.184;5.786;2023-03-19T13:08:29;16.20;78.70
42199;DHT22;27868;45.184;5.786;2023-03-19T13:11:26;16.10;77.20
42199;DHT22;27868;45.184;5.786;2023-03-19T13:17:41;16.10;78.40
42199;DHT22;27868;45.184;5.786;2023-03-19T13:24:20;16.30;77.10
42199;DHT22;27868;45.184;5.786;2023-03-19T13:27:12;16.30;75.40
42199;DHT22;27868;45.184;5.786;2023-03-19T13:33:04;16.40;76.60
42199;DHT22;27868;45.184;5.786;2023-03-19T13:35:49;16.40;73.00
42199;DHT22;27868;45.184;5.786;2023-03-19T13:38:41;16.40;75.10
42199;DHT22;27868;45.184;5.786;2023-03-19T13:44:47;16.40;75.20
42199;DHT22;27868;45.184;5.786;2023-03-19T13:47:37;16.40;74.70
42199;DHT22;27868;45.184;5.786;2023-03-19T13:50:25;16.40;74.60
42199;DHT22;27868;45.184;5.786;2023-03-19T13:56:15;16.60;75.70
42199;DHT22;27868;45.184;5.786;2023-03-19T13:59:23;16.60;76.00
42199;DHT22;27868;45.184;5.786;2023-03-19T14:08:00;16.60;75.10
42199;DHT22;27868;45.184;5.786;2023-03-19T14:10:56;16.60;75.10
42199;DHT22;27868;45.184;5.786;2023-03-19T14:13:46;16.70;75.10
42199;DHT22;27868;45.184;5.786;2023-03-19T14:16:35;16.70;75.10
42199;DHT22;27868;45.184;5.786;2023-03-19T14:19:24;16.70;74.70
42199;DHT22;27868;45.184;5.786;2023-03-19T14:25:18;16.80;74.40
42199;DHT22;27868;45.184;5.786;2023-03-19T14:28:08;16.90;74.10
42199;DHT22;27868;45.184;5.786;2023-03-19T14:30:54;16.90;74.30
42199;DHT22;27868;45.184;5.786;2023-03-19T14:33:49;16.90;73.90
42199;DHT22;27868;45.184;5.786;2023-03-19T14:36:40;17.00;72.10
42199;DHT22;27868;45.184;5.786;2023-03-19T14:39:33;16.90;72.90
42199;DHT22;27868;45.184;5.786;2023-03-19T14:42:37;16.90;73.00
42199;DHT22;27868;45.184;5.786;2023-03-19T14:45:56;16.80;72.10
42199;DHT22;27868;45.184;5.786;2023-03-19T14:52:21;16.90;73.00
42199;DHT22;27868;45.184;5.786;2023-03-19T14:55:11;16.90;72.90
42199;DHT22;27868;45.184;5.786;2023-03-19T14:57:56;17.00;73.10
42199;DHT22;27868;45.184;5.786;2023-03-19T15:00:45;16.80;73.40
42199;DHT22;27868;45.184;5.786;2023-03-19T15:03:31;16.90;71.10
42199;DHT22;27868;45.184;5.786;2023-03-19T15:06:16;16.90;73.00
42199;DHT22;27868;45.184;5.786;2023-03-19T15:09:01;16.90;71.50
42199;DHT22;27868;45.184;5.786;2023-03-19T15:17:57;17.00;71.80
42199;DHT22;27868;45.184;5.786;2023-03-19T15:20:43;17.10;72.70
42199;DHT22;27868;45.184;5.786;2023-03-19T15:23:27;17.20;72.70
42199;DHT22;27868;45.184;5.786;2023-03-19T15:26:12;17.10;69.70
42199;DHT22;27868;45.184;5.786;2023-03-19T15:28:57;17.20;71.10
42199;DHT22;27868;45.184;5.786;2023-03-19T15:31:43;17.30;71.10
42199;DHT22;27868;45.184;5.786;2023-03-19T15:34:28;17.30;71.70
42199;DHT22;27868;45.184;5.786;2023-03-19T15:37:13;17.30;71.90
42199;DHT22;27868;45.184;5.786;2023-03-19T15:39:58;17.20;72.10
42199;DHT22;27868;45.184;5.786;2023-03-19T15:42:44;17.20;72.00
42199;DHT22;27868;45.184;5.786;2023-03-19T15:45:30;17.20;72.40
42199;DHT22;27868;45.184;5.786;2023-03-19T15:48:21;17.30;72.30
42199;DHT22;27868;45.184;5.786;2023-03-19T15:51:06;17.30;72.50
42199;DHT22;27868;45.184;5.786;2023-03-19T15:53:51;17.30;72.40
42199;DHT22;27868;45.184;5.786;2023-03-19T15:56:37;17.30;72.50
42199;DHT22;27868;45.184;5.786;2023-03-19T15:59:22;17.40;72.60
42199;DHT22;27868;45.184;5.786;2023-03-19T16:02:31;17.30;70.90
42199;DHT22;27868;45.184;5.786;2023-03-19T16:05:32;17.30;71.90
42199;DHT22;27868;45.184;5.786;2023-03-19T16:08:20;17.20;71.70
42199;DHT22;27868;45.184;5.786;2023-03-19T16:11:12;17.20;72.10
42199;DHT22;27868;45.184;5.786;2023-03-19T16:13:58;17.20;72.40
42199;DHT22;27868;45.184;5.786;2023-03-19T16:16:47;17.20;72.10
42199;DHT22;27868;45.184;5.786;2023-03-19T16:19:47;17.20;72.40
42199;DHT22;27868;45.184;5.786;2023-03-19T16:22:35;17.20;72.80
42199;DHT22;27868;45.184;5.786;2023-03-19T16:25:19;17.20;73.00
42199;DHT22;27868;45.184;5.786;2023-03-19T16:28:13;17.20;73.20
42199;DHT22;27868;45.184;5.786;2023-03-19T16:30:59;17.20;73.50
42199;DHT22;27868;45.184;5.786;2023-03-19T16:33:44;17.20;73.70
42199;DHT22;27868;45.184;5.786;2023-03-19T16:36:30;17.20;73.90
42199;DHT22;27868;45.184;5.786;2023-03-19T16:39:25;17.20;74.10
42199;DHT22;27868;45.184;5.786;2023-03-19T16:42:25;17.10;74.40
42199;DHT22;27868;45.184;5.786;2023-03-19T16:47:59;17.10;74.60
42199;DHT22;27868;45.184;5.786;2023-03-19T16:50:44;17.10;74.50
42199;DHT22;27868;45.184;5.786;2023-03-19T16:53:30;17.10;74.50
42199;DHT22;27868;45.184;5.786;2023-03-19T16:56:15;17.00;74.70
42199;DHT22;27868;45.184;5.786;2023-03-19T16:59:01;17.00;75.00
42199;DHT22;27868;45.184;5.786;2023-03-19T17:01:47;17.00;75.40
42199;DHT22;27868;45.184;5.786;2023-03-19T17:04:31;16.90;75.80
42199;DHT22;27868;45.184;5.786;2023-03-19T17:07:15;16.90;76.00
42199;DHT22;27868;45.184;5.786;2023-03-19T17:10:00;16.80;76.10
42199;DHT22;27868;45.184;5.786;2023-03-19T17:12:46;16.80;75.90
42199;DHT22;27868;45.184;5.786;2023-03-19T17:15:35;16.80;76.00
42199;DHT22;27868;45.184;5.786;2023-03-19T17:18:22;16.70;76.00
42199;DHT22;27868;45.184;5.786;2023-03-19T17:21:20;16.70;76.00
42199;DHT22;27868;45.184;5.786;2023-03-19T17:24:15;16.60;76.10
42199;DHT22;27868;45.184;5.786;2023-03-19T17:27:03;16.50;76.40
42199;DHT22;27868;45.184;5.786;2023-03-19T17:29:48;16.50;77.00
42199;DHT22;27868;45.184;5.786;2023-03-19T17:32:32;16.50;77.80
42199;DHT22;27868;45.184;5.786;2023-03-19T17:35:18;16.30;79.60
42199;DHT22;27868;45.184;5.786;2023-03-19T17:38:03;16.10;79.60
42199;DHT22;27868;45.184;5.786;2023-03-19T17:40:48;15.90;81.00
42199;DHT22;27868;45.184;5.786;2023-03-19T17:43:32;16.00;80.40
42199;DHT22;27868;45.184;5.786;2023-03-19T17:46:18;16.00;80.50
42199;DHT22;27868;45.184;5.786;2023-03-19T17:49:03;15.90;80.40
42199;DHT22;27868;45.184;5.786;2023-03-19T17:51:48;15.90;81.00
42199;DHT22;27868;45.184;5.786;2023-03-19T17:54:33;15.80;81.40
42199;DHT22;27868;45.184;5.786;2023-03-19T17:57:18;15.80;82.10
42199;DHT22;27868;45.184;5.786;2023-03-19T18:00:02;15.70;82.50
42199;DHT22;27868;45.184;5.786;2023-03-19T18:02:48;15.70;83.10
42199;DHT22;27868;45.184;5.786;2023-03-19T18:05:33;15.60;83.40
42199;DHT22;27868;45.184;5.786;2023-03-19T18:08:18;15.50;83.30
42199;DHT22;27868;45.184;5.786;2023-03-19T18:11:04;15.50;83.80
42199;DHT22;27868;45.184;5.786;2023-03-19T18:13:49;15.40;83.80
42199;DHT22;27868;45.184;5.786;2023-03-19T18:16:34;15.30;84.00
42199;DHT22;27868;45.184;5.786;2023-03-19T18:19:20;15.30;84.10
42199;DHT22;27868;45.184;5.786;2023-03-19T18:22:13;15.20;87.30
42199;DHT22;27868;45.184;5.786;2023-03-19T18:24:57;15.00;85.00
42199;DHT22;27868;45.184;5.786;2023-03-19T18:27:42;15.10;85.10
42199;DHT22;27868;45.184;5.786;2023-03-19T18:30:28;14.90;86.80
42199;DHT22;27868;45.184;5.786;2023-03-19T18:33:18;14.90;86.70
42199;DHT22;27868;45.184;5.786;2023-03-19T18:36:06;14.80;87.20
42199;DHT22;27868;45.184;5.786;2023-03-19T18:38:51;14.70;88.10
42199;DHT22;27868;45.184;5.786;2023-03-19T18:41:38;14.60;87.20
42199;DHT22;27868;45.184;5.786;2023-03-19T18:44:22;14.60;89.20
42199;DHT22;27868;45.184;5.786;2023-03-19T18:47:13;14.40;88.70
42199;DHT22;27868;45.184;5.786;2023-03-19T18:49:58;14.40;90.30
42199;DHT22;27868;45.184;5.786;2023-03-19T18:52:44;14.40;88.40
42199;DHT22;27868;45.184;5.786;2023-03-19T18:55:28;14.20;90.30
42199;DHT22;27868;45.184;5.786;2023-03-19T18:58:21;14.10;90.70
42199;DHT22;27868;45.184;5.786;2023-03-19T19:01:08;13.90;91.00
42199;DHT22;27868;45.184;5.786;2023-03-19T19:03:52;14.00;90.60
42199;DHT22;27868;45.184;5.786;2023-03-19T19:06:37;14.00;90.60
42199;DHT22;27868;45.184;5.786;2023-03-19T19:09:23;14.00;90.40
42199;DHT22;27868;45.184;5.786;2023-03-19T19:12:09;14.00;90.40
42199;DHT22;27868;45.184;5.786;2023-03-19T19:14:56;14.00;90.20
42199;DHT22;27868;45.184;5.786;2023-03-19T19:17:41;14.00;91.50
42199;DHT22;27868;45.184;5.786;2023-03-19T19:20:27;14.00;90.30
42199;DHT22;27868;45.184;5.786;2023-03-19T19:23:12;14.00;90.40